sensor_id;sensor_type;location;lat;lon;timestamp;temperature;humidity
27016;DHT22;14557;0.000;0.000;2022-12-18T00:02:13;19.20;62.70
27016;DHT22;14557;0.000;0.000;2022-12-18T00:04:39;19.20;62.80
27016;DHT22;14557;0.000;0.000;2022-12-18T00:07:04;19.20;62.90
27016;DHT22;14557;0.000;0.000;2022-12-18T00:09:30;19.20;62.80
27016;DHT22;14557;0.000;0.000;2022-12-18T00:11:56;19.20;62.70
27016;DHT22;14557;0.000;0.000;2022-12-18T00:14:21;19.20;62.30
27016;DHT22;14557;0.000;0.000;2022-12-18T00:16:47;19.20;62.30
27016;DHT22;14557;0.000;0.000;2022-12-18T00:19:14;19.20;62.30
27016;DHT22;14557;0.000;0.000;2022-12-18T00:21:41;19.10;61.90
27016;DHT22;14557;0.000;0.000;2022-12-18T00:24:07;19.20;62.00
27016;DHT22;14557;0.000;0.000;2022-12-18T00:26:34;19.10;62.20
27016;DHT22;14557;0.000;0.000;2022-12-18T00:29:13;19.10;62.40
27016;DHT22;14557;0.000;0.000;2022-12-18T00:31:40;19.10;62.00
27016;DHT22;14557;0.000;0.000;2022-12-18T00:34:06;19.10;61.80
27016;DHT22;14557;0.000;0.000;2022-12-18T00:36:33;19.10;61.80
27016;DHT22;14557;0.000;0.000;2022-12-18T00:39:01;19.10;61.80
27016;DHT22;14557;0.000;0.000;2022-12-18T00:41:27;19.10;62.30
27016;DHT22;14557;0.000;0.000;2022-12-18T00:44:15;19.00;62.00
27016;DHT22;14557;0.000;0.000;2022-12-18T00:46:42;19.00;62.00
27016;DHT22;14557;0.000;0.000;2022-12-18T00:49:08;19.00;61.80
27016;DHT22;14557;0.000;0.000;2022-12-18T00:51:33;19.00;61.50
27016;DHT22;14557;0.000;0.000;2022-12-18T00:53:59;19.00;61.50
27016;DHT22;14557;0.000;0.000;2022-12-18T00:56:25;19.00;61.70
27016;DHT22;14557;0.000;0.000;2022-12-18T00:58:51;19.00;61.50
27016;DHT22;14557;0.000;0.000;2022-12-18T01:01:17;19.00;61.40
27016;DHT22;14557;0.000;0.000;2022-12-18T01:03:42;19.00;61.50
27016;DHT22;14557;0.000;0.000;2022-12-18T01:06:11;18.90;61.40
27016;DHT22;14557;0.000;0.000;2022-12-18T01:08:37;18.90;61.30
27016;DHT22;14557;0.000;0.000;2022-12-18T01:11:15;18.90;61.30
27016;DHT22;14557;0.000;0.000;2022-12-18T01:13:42;18.90;61.70
27016;DHT22;14557;0.000;0.000;2022-12-18T01:16:10;18.90;61.80
27016;DHT22;14557;0.000;0.000;2022-12-18T01:18:36;18.90;61.40
27016;DHT22;14557;0.000;0.000;2022-12-18T01:21:10;18.90;61.30
27016;DHT22;14557;0.000;0.000;2022-12-18T01:23:36;18.80;61.70
27016;DHT22;14557;0.000;0.000;2022-12-18T01:26:06;18.90;61.40
27016;DHT22;14557;0.000;0.000;2022-12-18T01:28:32;18.90;61.70
27016;DHT22;14557;0.000;0.000;2022-12-18T01:31:08;18.90;61.70
27016;DHT22;14557;0.000;0.000;2022-12-18T01:33:34;18.90;61.80
27016;DHT22;14557;0.000;0.000;2022-12-18T01:35:59;18.90;62.40
27016;DHT22;14557;0.000;0.000;2022-12-18T01:38:25;18.80;61.10
27016;DHT22;14557;0.000;0.000;2022-12-18T01:40:57;18.80;61.20
27016;DHT22;14557;0.000;0.000;2022-12-18T01:43:51;18.90;61.50
27016;DHT22;14557;0.000;0.000;2022-12-18T01:46:18;18.80;61.40
27016;DHT22;14557;0.000;0.000;2022-12-18T01:48:47;18.80;61.90
27016;DHT22;14557;0.000;0.000;2022-12-18T01:51:14;18.80;61.60
27016;DHT22;14557;0.000;0.000;2022-12-18T01:53:44;18.80;61.20
27016;DHT22;14557;0.000;0.000;2022-12-18T01:56:12;18.80;62.00
27016;DHT22;14557;0.000;0.000;2022-12-18T01:59:01;18.80;61.70
27016;DHT22;14557;0.000;0.000;2022-12-18T02:01:29;18.80;61.40
27016;DHT22;14557;0.000;0.000;2022-12-18T02:03:56;18.80;61.00
27016;DHT22;14557;0.000;0.000;2022-12-18T02:06:42;18.80;61.00
27016;DHT22;14557;0.000;0.000;2022-12-18T02:09:18;18.80;60.90
27016;DHT22;14557;0.000;0.000;2022-12-18T02:14:38;18.70;60.90
27016;DHT22;14557;0.000;0.000;2022-12-18T02:17:23;18.70;60.60
27016;DHT22;14557;0.000;0.000;2022-12-18T02:20:12;18.70;60.80
27016;DHT22;14557;0.000;0.000;2022-12-18T02:25:33;18.60;60.40
27016;DHT22;14557;0.000;0.000;2022-12-18T02:28:07;18.70;60.40
27016;DHT22;14557;0.000;0.000;2022-12-18T02:30:35;18.60;60.80
27016;DHT22;14557;0.000;0.000;2022-12-18T02:33:04;18.60;60.90
27016;DHT22;14557;0.000;0.000;2022-12-18T02:35:30;18.60;61.00
27016;DHT22;14557;0.000;0.000;2022-12-18T02:37:57;18.60;60.90
27016;DHT22;14557;0.000;0.000;2022-12-18T02:40:25;18.50;60.30
27016;DHT22;14557;0.000;0.000;2022-12-18T02:42:51;18.60;60.10
27016;DHT22;14557;0.000;0.000;2022-12-18T02:45:17;18.60;60.40
27016;DHT22;14557;0.000;0.000;2022-12-18T02:47:46;18.50;60.10
27016;DHT22;14557;0.000;0.000;2022-12-18T02:58:51;18.50;60.50
27016;DHT22;14557;0.000;0.000;2022-12-18T03:04:07;18.50;60.40
27016;DHT22;14557;0.000;0.000;2022-12-18T03:06:41;18.50;60.30
27016;DHT22;14557;0.000;0.000;2022-12-18T03:09:15;18.50;60.40
27016;DHT22;14557;0.000;0.000;2022-12-18T03:11:46;18.50;60.30
27016;DHT22;14557;0.000;0.000;2022-12-18T03:14:32;18.50;61.10
27016;DHT22;14557;0.000;0.000;2022-12-18T03:17:03;18.50;60.80
27016;DHT22;14557;0.000;0.000;2022-12-18T03:19:32;18.50;60.50
27016;DHT22;14557;0.000;0.000;2022-12-18T03:22:00;18.50;60.50
27016;DHT22;14557;0.000;0.000;2022-12-18T03:24:30;18.50;60.70
27016;DHT22;14557;0.000;0.000;2022-12-18T03:27:00;18.50;60.30
27016;DHT22;14557;0.000;0.000;2022-12-18T03:29:45;18.40;61.10
27016;DHT22;14557;0.000;0.000;2022-12-18T03:32:18;18.40;59.90
27016;DHT22;14557;0.000;0.000;2022-12-18T03:34:49;18.40;59.80
27016;DHT22;14557;0.000;0.000;2022-12-18T03:37:16;18.40;60.00
27016;DHT22;14557;0.000;0.000;2022-12-18T03:39:42;18.40;60.30
27016;DHT22;14557;0.000;0.000;2022-12-18T03:45:07;18.30;60.30
27016;DHT22;14557;0.000;0.000;2022-12-18T03:47:57;18.30;60.30
27016;DHT22;14557;0.000;0.000;2022-12-18T03:50:36;18.30;60.10
27016;DHT22;14557;0.000;0.000;2022-12-18T03:53:14;18.30;61.00
27016;DHT22;14557;0.000;0.000;2022-12-18T03:55:41;18.30;61.20
27016;DHT22;14557;0.000;0.000;2022-12-18T03:58:10;18.30;60.80
27016;DHT22;14557;0.000;0.000;2022-12-18T04:00:37;18.30;60.30
27016;DHT22;14557;0.000;0.000;2022-12-18T04:03:04;18.20;60.70
27016;DHT22;14557;0.000;0.000;2022-12-18T04:05:33;18.20;60.20
27016;DHT22;14557;0.000;0.000;2022-12-18T04:08:00;18.20;59.80
27016;DHT22;14557;0.000;0.000;2022-12-18T04:10:26;18.20;60.20
27016;DHT22;14557;0.000;0.000;2022-12-18T04:12:56;18.20;60.40
27016;DHT22;14557;0.000;0.000;2022-12-18T04:15:21;18.20;60.50
27016;DHT22;14557;0.000;0.000;2022-12-18T04:17:48;18.20;60.60
27016;DHT22;14557;0.000;0.000;2022-12-18T04:20:15;18.20;60.60
27016;DHT22;14557;0.000;0.000;2022-12-18T04:22:41;18.20;60.50
27016;DHT22;14557;0.000;0.000;2022-12-18T04:25:06;18.20;60.50
27016;DHT22;14557;0.000;0.000;2022-12-18T04:27:32;18.20;60.30
27016;DHT22;14557;0.000;0.000;2022-12-18T04:29:58;18.10;60.30
27016;DHT22;14557;0.000;0.000;2022-12-18T04:32:24;18.10;60.40
27016;DHT22;14557;0.000;0.000;2022-12-18T04:34:49;18.10;60.30
27016;DHT22;14557;0.000;0.000;2022-12-18T04:37:15;18.10;60.40
27016;DHT22;14557;0.000;0.000;2022-12-18T04:39:41;18.10;60.40
27016;DHT22;14557;0.000;0.000;2022-12-18T04:42:06;18.10;60.40
27016;DHT22;14557;0.000;0.000;2022-12-18T04:44:32;18.10;59.80
27016;DHT22;14557;0.000;0.000;2022-12-18T04:46:58;18.10;60.20
27016;DHT22;14557;0.000;0.000;2022-12-18T04:49:23;18.10;59.80
27016;DHT22;14557;0.000;0.000;2022-12-18T04:51:49;18.00;59.80
27016;DHT22;14557;0.000;0.000;2022-12-18T04:54:15;18.00;59.70
27016;DHT22;14557;0.000;0.000;2022-12-18T04:56:40;18.00;59.70
27016;DHT22;14557;0.000;0.000;2022-12-18T04:59:06;18.00;59.60
27016;DHT22;14557;0.000;0.000;2022-12-18T05:01:32;18.00;59.60
27016;DHT22;14557;0.000;0.000;2022-12-18T05:03:59;18.00;59.60
27016;DHT22;14557;0.000;0.000;2022-12-18T05:06:24;17.90;59.70
27016;DHT22;14557;0.000;0.000;2022-12-18T05:08:50;17.90;59.60
27016;DHT22;14557;0.000;0.000;2022-12-18T05:11:16;17.90;59.60
27016;DHT22;14557;0.000;0.000;2022-12-18T05:13:43;17.80;59.50
27016;DHT22;14557;0.000;0.000;2022-12-18T05:16:09;17.80;59.50
27016;DHT22;14557;0.000;0.000;2022-12-18T05:18:35;17.80;59.50
27016;DHT22;14557;0.000;0.000;2022-12-18T05:21:01;17.80;59.50
27016;DHT22;14557;0.000;0.000;2022-12-18T05:23:27;17.80;59.40
27016;DHT22;14557;0.000;0.000;2022-12-18T05:26:01;17.80;59.50
27016;DHT22;14557;0.000;0.000;2022-12-18T05:28:29;17.80;59.50
27016;DHT22;14557;0.000;0.000;2022-12-18T05:30:58;17.80;59.50
27016;DHT22;14557;0.000;0.000;2022-12-18T05:33:27;17.70;59.30
27016;DHT22;14557;0.000;0.000;2022-12-18T05:35:58;17.70;59.30
27016;DHT22;14557;0.000;0.000;2022-12-18T05:38:25;17.80;59.30
27016;DHT22;14557;0.000;0.000;2022-12-18T05:40:52;17.70;59.30
27016;DHT22;14557;0.000;0.000;2022-12-18T05:43:22;17.70;59.30
27016;DHT22;14557;0.000;0.000;2022-12-18T05:45:49;17.70;59.30
27016;DHT22;14557;0.000;0.000;2022-12-18T05:48:15;17.70;59.20
27016;DHT22;14557;0.000;0.000;2022-12-18T05:50:43;17.70;59.20
27016;DHT22;14557;0.000;0.000;2022-12-18T05:53:11;17.70;59.10
27016;DHT22;14557;0.000;0.000;2022-12-18T05:55:40;17.70;59.20
27016;DHT22;14557;0.000;0.000;2022-12-18T05:58:07;17.70;59.20
27016;DHT22;14557;0.000;0.000;2022-12-18T06:00:35;17.70;59.10
27016;DHT22;14557;0.000;0.000;2022-12-18T06:03:01;17.70;59.10
27016;DHT22;14557;0.000;0.000;2022-12-18T06:05:27;17.60;59.00
27016;DHT22;14557;0.000;0.000;2022-12-18T06:07:53;17.60;59.00
27016;DHT22;14557;0.000;0.000;2022-12-18T06:10:19;17.60;59.00
27016;DHT22;14557;0.000;0.000;2022-12-18T06:12:45;17.60;59.10
27016;DHT22;14557;0.000;0.000;2022-12-18T06:15:10;17.60;59.10
27016;DHT22;14557;0.000;0.000;2022-12-18T06:17:36;17.60;59.10
27016;DHT22;14557;0.000;0.000;2022-12-18T06:20:03;17.50;59.00
27016;DHT22;14557;0.000;0.000;2022-12-18T06:22:31;17.50;59.00
27016;DHT22;14557;0.000;0.000;2022-12-18T06:24:57;17.50;59.10
27016;DHT22;14557;0.000;0.000;2022-12-18T06:27:23;17.50;59.10
27016;DHT22;14557;0.000;0.000;2022-12-18T06:29:49;17.50;59.10
27016;DHT22;14557;0.000;0.000;2022-12-18T06:32:14;17.50;59.20
27016;DHT22;14557;0.000;0.000;2022-12-18T06:34:40;17.40;59.00
27016;DHT22;14557;0.000;0.000;2022-12-18T06:37:06;17.40;59.10
27016;DHT22;14557;0.000;0.000;2022-12-18T06:39:31;17.50;59.20
27016;DHT22;14557;0.000;0.000;2022-12-18T06:41:57;17.40;59.10
27016;DHT22;14557;0.000;0.000;2022-12-18T06:44:23;17.40;59.10
27016;DHT22;14557;0.000;0.000;2022-12-18T06:46:48;17.40;59.00
27016;DHT22;14557;0.000;0.000;2022-12-18T06:49:14;17.40;59.10
27016;DHT22;14557;0.000;0.000;2022-12-18T06:51:41;17.40;59.20
27016;DHT22;14557;0.000;0.000;2022-12-18T06:54:07;17.40;59.10
27016;DHT22;14557;0.000;0.000;2022-12-18T06:56:33;17.40;59.20
27016;DHT22;14557;0.000;0.000;2022-12-18T06:58:59;17.40;59.20
27016;DHT22;14557;0.000;0.000;2022-12-18T07:01:25;17.30;59.00
27016;DHT22;14557;0.000;0.000;2022-12-18T07:03:55;17.30;59.00
27016;DHT22;14557;0.000;0.000;2022-12-18T07:06:23;17.30;59.00
27016;DHT22;14557;0.000;0.000;2022-12-18T07:08:50;17.30;59.10
27016;DHT22;14557;0.000;0.000;2022-12-18T07:11:16;17.30;59.10
27016;DHT22;14557;0.000;0.000;2022-12-18T07:13:42;17.30;59.00
27016;DHT22;14557;0.000;0.000;2022-12-18T07:16:12;17.30;59.00
27016;DHT22;14557;0.000;0.000;2022-12-18T07:18:37;17.30;58.90
27016;DHT22;14557;0.000;0.000;2022-12-18T07:21:05;17.30;58.90
27016;DHT22;14557;0.000;0.000;2022-12-18T07:23:31;17.30;59.00
27016;DHT22;14557;0.000;0.000;2022-12-18T07:26:01;17.30;58.90
27016;DHT22;14557;0.000;0.000;2022-12-18T07:28:27;17.20;59.50
27016;DHT22;14557;0.000;0.000;2022-12-18T07:30:53;17.20;58.90
27016;DHT22;14557;0.000;0.000;2022-12-18T07:33:19;17.20;58.90
27016;DHT22;14557;0.000;0.000;2022-12-18T07:35:44;17.20;59.00
27016;DHT22;14557;0.000;0.000;2022-12-18T07:38:10;17.20;59.00
27016;DHT22;14557;0.000;0.000;2022-12-18T07:40:36;17.20;59.00
27016;DHT22;14557;0.000;0.000;2022-12-18T07:43:01;17.20;59.00
27016;DHT22;14557;0.000;0.000;2022-12-18T07:45:30;17.10;58.90
27016;DHT22;14557;0.000;0.000;2022-12-18T07:47:55;17.10;58.80
27016;DHT22;14557;0.000;0.000;2022-12-18T07:50:21;17.10;58.90
27016;DHT22;14557;0.000;0.000;2022-12-18T07:52:47;17.20;58.90
27016;DHT22;14557;0.000;0.000;2022-12-18T07:55:13;17.10;58.90
27016;DHT22;14557;0.000;0.000;2022-12-18T07:57:39;17.10;58.90
27016;DHT22;14557;0.000;0.000;2022-12-18T08:00:05;17.10;58.90
27016;DHT22;14557;0.000;0.000;2022-12-18T08:02:31;17.10;58.90
27016;DHT22;14557;0.000;0.000;2022-12-18T08:04:57;17.10;58.90
27016;DHT22;14557;0.000;0.000;2022-12-18T08:07:23;17.10;59.00
27016;DHT22;14557;0.000;0.000;2022-12-18T08:09:49;17.10;59.00
27016;DHT22;14557;0.000;0.000;2022-12-18T08:12:14;17.10;58.90
27016;DHT22;14557;0.000;0.000;2022-12-18T08:14:40;17.10;59.00
27016;DHT22;14557;0.000;0.000;2022-12-18T08:17:06;17.10;58.90
27016;DHT22;14557;0.000;0.000;2022-12-18T08:19:31;17.10;58.90
27016;DHT22;14557;0.000;0.000;2022-12-18T08:21:57;17.10;59.50
27016;DHT22;14557;0.000;0.000;2022-12-18T08:24:23;17.10;59.10
27016;DHT22;14557;0.000;0.000;2022-12-18T08:26:48;17.10;59.00
27016;DHT22;14557;0.000;0.000;2022-12-18T08:29:14;17.10;58.90
27016;DHT22;14557;0.000;0.000;2022-12-18T08:31:40;17.10;59.10
27016;DHT22;14557;0.000;0.000;2022-12-18T08:34:05;17.10;58.90
27016;DHT22;14557;0.000;0.000;2022-12-18T08:36:31;17.10;58.90
27016;DHT22;14557;0.000;0.000;2022-12-18T08:38:57;17.10;58.80
27016;DHT22;14557;0.000;0.000;2022-12-18T08:41:22;17.10;58.90
27016;DHT22;14557;0.000;0.000;2022-12-18T08:43:48;17.10;59.90
27016;DHT22;14557;0.000;0.000;2022-12-18T08:46:38;17.20;67.30
27016;DHT22;14557;0.000;0.000;2022-12-18T08:49:05;17.20;65.80
27016;DHT22;14557;0.000;0.000;2022-12-18T08:51:32;17.20;69.00
27016;DHT22;14557;0.000;0.000;2022-12-18T08:53:58;17.20;64.70
27016;DHT22;14557;0.000;0.000;2022-12-18T08:56:23;17.20;64.40
27016;DHT22;14557;0.000;0.000;2022-12-18T08:58:54;17.20;63.50
27016;DHT22;14557;0.000;0.000;2022-12-18T09:01:20;17.20;63.50
27016;DHT22;14557;0.000;0.000;2022-12-18T09:03:48;17.10;62.50
27016;DHT22;14557;0.000;0.000;2022-12-18T09:06:16;17.10;62.20
27016;DHT22;14557;0.000;0.000;2022-12-18T09:08:43;17.10;62.00
27016;DHT22;14557;0.000;0.000;2022-12-18T09:11:28;17.20;62.40
27016;DHT22;14557;0.000;0.000;2022-12-18T09:13:55;17.20;62.80
27016;DHT22;14557;0.000;0.000;2022-12-18T09:16:21;17.10;62.10
27016;DHT22;14557;0.000;0.000;2022-12-18T09:18:48;17.10;61.50
27016;DHT22;14557;0.000;0.000;2022-12-18T09:21:16;17.10;61.30
27016;DHT22;14557;0.000;0.000;2022-12-18T09:23:43;17.10;61.20
27016;DHT22;14557;0.000;0.000;2022-12-18T09:26:10;17.10;61.00
27016;DHT22;14557;0.000;0.000;2022-12-18T09:28:35;17.10;61.00
27016;DHT22;14557;0.000;0.000;2022-12-18T09:31:06;17.10;60.90
27016;DHT22;14557;0.000;0.000;2022-12-18T09:33:34;17.10;60.80
27016;DHT22;14557;0.000;0.000;2022-12-18T09:36:02;17.10;60.60
27016;DHT22;14557;0.000;0.000;2022-12-18T09:38:27;17.10;60.50
27016;DHT22;14557;0.000;0.000;2022-12-18T09:40:59;17.10;60.40
27016;DHT22;14557;0.000;0.000;2022-12-18T09:46:08;17.10;60.30
27016;DHT22;14557;0.000;0.000;2022-12-18T09:48:40;17.10;60.10
27016;DHT22;14557;0.000;0.000;2022-12-18T09:51:32;17.10;60.00
27016;DHT22;14557;0.000;0.000;2022-12-18T09:54:04;17.10;60.00
27016;DHT22;14557;0.000;0.000;2022-12-18T09:56:35;17.10;59.70
27016;DHT22;14557;0.000;0.000;2022-12-18T09:59:04;17.10;59.70
27016;DHT22;14557;0.000;0.000;2022-12-18T10:01:31;17.10;59.60
27016;DHT22;14557;0.000;0.000;2022-12-18T10:03:57;17.10;59.70
27016;DHT22;14557;0.000;0.000;2022-12-18T10:06:57;17.10;60.30
27016;DHT22;14557;0.000;0.000;2022-12-18T10:09:44;17.10;59.70
27016;DHT22;14557;0.000;0.000;2022-12-18T10:20:47;17.10;59.50
27016;DHT22;14557;0.000;0.000;2022-12-18T10:23:35;17.10;59.40
27016;DHT22;14557;0.000;0.000;2022-12-18T10:26:10;17.10;59.30
27016;DHT22;14557;0.000;0.000;2022-12-18T10:28:37;17.10;59.10
27016;DHT22;14557;0.000;0.000;2022-12-18T10:31:11;17.10;59.30
27016;DHT22;14557;0.000;0.000;2022-12-18T10:33:39;17.10;59.20
27016;DHT22;14557;0.000;0.000;2022-12-18T10:36:04;17.10;59.30
27016;DHT22;14557;0.000;0.000;2022-12-18T10:38:31;17.10;59.20
27016;DHT22;14557;0.000;0.000;2022-12-18T10:41:13;17.10;59.30
27016;DHT22;14557;0.000;0.000;2022-12-18T10:44:23;17.10;59.40
27016;DHT22;14557;0.000;0.000;2022-12-18T10:47:03;17.10;59.40
27016;DHT22;14557;0.000;0.000;2022-12-18T10:49:33;17.10;59.90
27016;DHT22;14557;0.000;0.000;2022-12-18T10:52:23;17.20;60.50
27016;DHT22;14557;0.000;0.000;2022-12-18T10:54:54;17.20;61.00
27016;DHT22;14557;0.000;0.000;2022-12-18T10:59:53;17.20;60.70
27016;DHT22;14557;0.000;0.000;2022-12-18T11:02:37;17.20;61.00
27016;DHT22;14557;0.000;0.000;2022-12-18T11:05:22;17.20;60.70
27016;DHT22;14557;0.000;0.000;2022-12-18T11:07:50;17.30;61.10
27016;DHT22;14557;0.000;0.000;2022-12-18T11:10:21;17.20;61.20
27016;DHT22;14557;0.000;0.000;2022-12-18T11:12:47;17.30;61.50
27016;DHT22;14557;0.000;0.000;2022-12-18T11:15:29;17.30;61.40
27016;DHT22;14557;0.000;0.000;2022-12-18T11:17:55;17.40;61.50
27016;DHT22;14557;0.000;0.000;2022-12-18T11:20:32;17.40;61.20
27016;DHT22;14557;0.000;0.000;2022-12-18T11:23:04;17.50;61.70
27016;DHT22;14557;0.000;0.000;2022-12-18T11:25:32;17.50;61.70
27016;DHT22;14557;0.000;0.000;2022-12-18T11:28:02;17.60;62.20
27016;DHT22;14557;0.000;0.000;2022-12-18T11:30:33;17.60;61.90
27016;DHT22;14557;0.000;0.000;2022-12-18T11:33:06;17.60;61.70
27016;DHT22;14557;0.000;0.000;2022-12-18T11:35:48;17.70;62.00
27016;DHT22;14557;0.000;0.000;2022-12-18T11:38:22;17.70;61.70
27016;DHT22;14557;0.000;0.000;2022-12-18T11:40:58;17.80;61.40
27016;DHT22;14557;0.000;0.000;2022-12-18T11:43:33;17.90;61.20
27016;DHT22;14557;0.000;0.000;2022-12-18T11:46:05;17.90;60.90
27016;DHT22;14557;0.000;0.000;2022-12-18T11:49:01;17.80;60.60
27016;DHT22;14557;0.000;0.000;2022-12-18T11:51:34;17.80;60.20
27016;DHT22;14557;0.000;0.000;2022-12-18T11:54:13;17.80;60.00
27016;DHT22;14557;0.000;0.000;2022-12-18T12:02:34;17.80;60.20
27016;DHT22;14557;0.000;0.000;2022-12-18T12:08:06;17.80;59.60
27016;DHT22;14557;0.000;0.000;2022-12-18T12:16:05;17.90;60.40
27016;DHT22;14557;0.000;0.000;2022-12-18T12:18:40;17.90;60.00
27016;DHT22;14557;0.000;0.000;2022-12-18T12:21:28;17.90;59.70
27016;DHT22;14557;0.000;0.000;2022-12-18T12:26:49;17.80;59.30
27016;DHT22;14557;0.000;0.000;2022-12-18T12:34:52;17.80;58.90
27016;DHT22;14557;0.000;0.000;2022-12-18T12:40:26;17.80;58.90
27016;DHT22;14557;0.000;0.000;2022-12-18T12:43:01;17.80;58.80
27016;DHT22;14557;0.000;0.000;2022-12-18T12:51:04;17.80;59.40
27016;DHT22;14557;0.000;0.000;2022-12-18T12:53:35;17.80;58.80
27016;DHT22;14557;0.000;0.000;2022-12-18T12:56:03;17.80;58.70
27016;DHT22;14557;0.000;0.000;2022-12-18T13:01:32;17.80;58.70
27016;DHT22;14557;0.000;0.000;2022-12-18T13:04:21;17.80;58.60
27016;DHT22;14557;0.000;0.000;2022-12-18T13:09:21;17.80;58.60
27016;DHT22;14557;0.000;0.000;2022-12-18T13:11:47;17.80;58.50
27016;DHT22;14557;0.000;0.000;2022-12-18T13:14:34;17.80;58.50
27016;DHT22;14557;0.000;0.000;2022-12-18T13:20:07;17.80;58.60
27016;DHT22;14557;0.000;0.000;2022-12-18T13:22:39;17.80;58.50
27016;DHT22;14557;0.000;0.000;2022-12-18T13:25:32;17.80;58.70
27016;DHT22;14557;0.000;0.000;2022-12-18T13:38:37;17.90;59.40
27016;DHT22;14557;0.000;0.000;2022-12-18T13:43:49;17.90;60.20
27016;DHT22;14557;0.000;0.000;2022-12-18T13:51:43;18.00;60.80
27016;DHT22;14557;0.000;0.000;2022-12-18T13:54:35;17.90;61.50
27016;DHT22;14557;0.000;0.000;2022-12-18T13:57:01;18.00;61.10
27016;DHT22;14557;0.000;0.000;2022-12-18T13:59:34;18.00;60.90
27016;DHT22;14557;0.000;0.000;2022-12-18T14:02:16;18.00;60.80
27016;DHT22;14557;0.000;0.000;2022-12-18T14:04:45;18.00;60.90
27016;DHT22;14557;0.000;0.000;2022-12-18T14:07:22;18.00;60.80
27016;DHT22;14557;0.000;0.000;2022-12-18T14:09:58;18.00;61.10
27016;DHT22;14557;0.000;0.000;2022-12-18T14:12:28;18.00;62.80
27016;DHT22;14557;0.000;0.000;2022-12-18T14:15:31;18.00;67.30
27016;DHT22;14557;0.000;0.000;2022-12-18T14:21:03;18.00;70.00
27016;DHT22;14557;0.000;0.000;2022-12-18T14:25:58;17.90;67.70
27016;DHT22;14557;0.000;0.000;2022-12-18T14:28:24;17.90;67.40
27016;DHT22;14557;0.000;0.000;2022-12-18T14:30:51;17.90;69.30
27016;DHT22;14557;0.000;0.000;2022-12-18T14:33:20;17.90;68.00
27016;DHT22;14557;0.000;0.000;2022-12-18T14:40:56;17.90;70.50
27016;DHT22;14557;0.000;0.000;2022-12-18T14:43:22;17.80;66.80
27016;DHT22;14557;0.000;0.000;2022-12-18T14:45:49;17.80;65.10
27016;DHT22;14557;0.000;0.000;2022-12-18T14:48:33;17.90;65.10
27016;DHT22;14557;0.000;0.000;2022-12-18T14:51:02;17.90;65.90
27016;DHT22;14557;0.000;0.000;2022-12-18T14:56:20;17.80;67.70
27016;DHT22;14557;0.000;0.000;2022-12-18T15:01:37;17.80;70.10
27016;DHT22;14557;0.000;0.000;2022-12-18T15:04:05;17.80;72.10
27016;DHT22;14557;0.000;0.000;2022-12-18T15:06:47;17.90;74.80
27016;DHT22;14557;0.000;0.000;2022-12-18T15:09:22;17.90;69.20
27016;DHT22;14557;0.000;0.000;2022-12-18T15:11:49;17.90;65.90
27016;DHT22;14557;0.000;0.000;2022-12-18T15:16:58;17.90;63.70
27016;DHT22;14557;0.000;0.000;2022-12-18T15:19:42;17.80;58.80
27016;DHT22;14557;0.000;0.000;2022-12-18T15:22:18;17.80;57.30
27016;DHT22;14557;0.000;0.000;2022-12-18T15:24:44;17.70;58.00
27016;DHT22;14557;0.000;0.000;2022-12-18T15:27:42;17.70;58.80
27016;DHT22;14557;0.000;0.000;2022-12-18T15:32:40;17.70;58.30
27016;DHT22;14557;0.000;0.000;2022-12-18T15:37:35;17.60;56.80
27016;DHT22;14557;0.000;0.000;2022-12-18T15:40:00;17.60;57.40
27016;DHT22;14557;0.000;0.000;2022-12-18T15:42:28;17.60;57.90
27016;DHT22;14557;0.000;0.000;2022-12-18T15:45:13;17.60;58.50
27016;DHT22;14557;0.000;0.000;2022-12-18T15:47:39;17.60;58.90
27016;DHT22;14557;0.000;0.000;2022-12-18T15:50:05;17.60;59.20
27016;DHT22;14557;0.000;0.000;2022-12-18T15:52:43;17.60;59.50
27016;DHT22;14557;0.000;0.000;2022-12-18T15:55:16;17.60;59.70
27016;DHT22;14557;0.000;0.000;2022-12-18T15:58:01;17.60;60.10
27016;DHT22;14557;0.000;0.000;2022-12-18T16:00:27;17.60;60.70
27016;DHT22;14557;0.000;0.000;2022-12-18T16:02:53;17.60;60.80
27016;DHT22;14557;0.000;0.000;2022-12-18T16:05:24;17.60;60.90
27016;DHT22;14557;0.000;0.000;2022-12-18T16:07:51;17.70;61.10
27016;DHT22;14557;0.000;0.000;2022-12-18T16:10:17;17.70;61.30
27016;DHT22;14557;0.000;0.000;2022-12-18T16:12:43;17.70;61.30
27016;DHT22;14557;0.000;0.000;2022-12-18T16:15:11;17.70;61.50
27016;DHT22;14557;0.000;0.000;2022-12-18T16:17:39;17.70;61.30
27016;DHT22;14557;0.000;0.000;2022-12-18T16:20:06;17.70;61.30
27016;DHT22;14557;0.000;0.000;2022-12-18T16:22:31;17.70;61.60
27016;DHT22;14557;0.000;0.000;2022-12-18T16:24:57;17.70;61.60
27016;DHT22;14557;0.000;0.000;2022-12-18T16:27:24;17.70;61.70
27016;DHT22;14557;0.000;0.000;2022-12-18T16:29:50;17.70;61.80
27016;DHT22;14557;0.000;0.000;2022-12-18T16:32:18;17.70;61.80
27016;DHT22;14557;0.000;0.000;2022-12-18T16:34:45;17.70;61.90
27016;DHT22;14557;0.000;0.000;2022-12-18T16:37:13;17.70;62.00
27016;DHT22;14557;0.000;0.000;2022-12-18T16:39:39;17.70;61.80
27016;DHT22;14557;0.000;0.000;2022-12-18T16:42:17;17.70;61.90
27016;DHT22;14557;0.000;0.000;2022-12-18T16:44:45;17.70;61.90
27016;DHT22;14557;0.000;0.000;2022-12-18T16:47:11;17.70;62.00
27016;DHT22;14557;0.000;0.000;2022-12-18T16:49:37;17.70;62.10
27016;DHT22;14557;0.000;0.000;2022-12-18T16:52:05;17.70;62.20
27016;DHT22;14557;0.000;0.000;2022-12-18T16:54:30;17.70;62.10
27016;DHT22;14557;0.000;0.000;2022-12-18T16:56:58;17.70;62.20
27016;DHT22;14557;0.000;0.000;2022-12-18T16:59:25;17.70;62.20
27016;DHT22;14557;0.000;0.000;2022-12-18T17:01:52;17.70;62.20
27016;DHT22;14557;0.000;0.000;2022-12-18T17:04:18;17.70;62.30
27016;DHT22;14557;0.000;0.000;2022-12-18T17:06:44;17.70;63.20
27016;DHT22;14557;0.000;0.000;2022-12-18T17:09:14;17.70;62.40
27016;DHT22;14557;0.000;0.000;2022-12-18T17:11:40;17.70;62.50
27016;DHT22;14557;0.000;0.000;2022-12-18T17:14:17;17.70;62.50
27016;DHT22;14557;0.000;0.000;2022-12-18T17:16:44;17.70;62.40
27016;DHT22;14557;0.000;0.000;2022-12-18T17:19:10;17.70;62.30
27016;DHT22;14557;0.000;0.000;2022-12-18T17:21:36;17.70;62.50
27016;DHT22;14557;0.000;0.000;2022-12-18T17:24:02;17.70;62.50
27016;DHT22;14557;0.000;0.000;2022-12-18T17:26:28;17.70;62.30
27016;DHT22;14557;0.000;0.000;2022-12-18T17:28:58;17.70;62.20
27016;DHT22;14557;0.000;0.000;2022-12-18T17:31:26;17.70;64.40
27016;DHT22;14557;0.000;0.000;2022-12-18T17:33:53;17.70;63.40
27016;DHT22;14557;0.000;0.000;2022-12-18T17:36:19;17.70;62.50
27016;DHT22;14557;0.000;0.000;2022-12-18T17:38:53;17.80;62.20
27016;DHT22;14557;0.000;0.000;2022-12-18T17:41:19;17.80;61.90
27016;DHT22;14557;0.000;0.000;2022-12-18T17:43:53;17.80;61.90
27016;DHT22;14557;0.000;0.000;2022-12-18T17:46:19;17.80;61.90
27016;DHT22;14557;0.000;0.000;2022-12-18T17:48:45;17.80;62.00
27016;DHT22;14557;0.000;0.000;2022-12-18T17:51:11;17.80;61.60
27016;DHT22;14557;0.000;0.000;2022-12-18T17:53:37;17.80;61.70
27016;DHT22;14557;0.000;0.000;2022-12-18T17:56:07;17.80;62.00
27016;DHT22;14557;0.000;0.000;2022-12-18T17:58:36;17.80;62.00